Sao Benedito do Sul, Brazil
Current Conditions -  °F | °C
As of 1:00 AM on Friday 28 Nov 2014 (Local Time) from SBMO Reporting Station
Few Clouds Few Clouds  
Wind Chill: 72°   Ceiling: Unl
Heat Index: 72°   Visibility: 6mi
Dew Point: 72°   Wind: 2mph
Humidity: 100%   Direction: 40°NE
Pressure: 29.91"   Gusts: NA
Location:  8.81°S, 35.95°W
Report Text: SBMO 280400Z 04002KT 9999 FEW020 22/22 Q1013
Loading
Personal Weather Stations






























Interactive Weather Map New forecast layout! Learn more

10-Day Weather Forecast

Advertisements
Track Severe Weather on mobile